sensor_id;sensor_type;location;lat;lon;timestamp;temperature;humidity
34542;DHT22;20784;51.332;12.410;2023-03-03T00:00:36;2.10;99.90
34542;DHT22;20784;51.332;12.410;2023-03-03T00:03:07;2.10;99.90
34542;DHT22;20784;51.332;12.410;2023-03-03T00:05:35;2.10;99.90
34542;DHT22;20784;51.332;12.410;2023-03-03T00:08:01;2.00;99.90
34542;DHT22;20784;51.332;12.410;2023-03-03T00:10:33;2.00;99.90
34542;DHT22;20784;51.332;12.410;2023-03-03T00:13:14;2.10;99.90
34542;DHT22;20784;51.332;12.410;2023-03-03T00:18:30;2.10;99.90
34542;DHT22;20784;51.332;12.410;2023-03-03T00:21:02;2.00;99.90
34542;DHT22;20784;51.332;12.410;2023-03-03T00:23:30;2.00;99.90
34542;DHT22;20784;51.332;12.410;2023-03-03T00:26:26;2.10;99.90
34542;DHT22;20784;51.332;12.410;2023-03-03T00:28:55;2.10;99.90
34542;DHT22;20784;51.332;12.410;2023-03-03T00:31:33;2.10;99.90
34542;DHT22;20784;51.332;12.410;2023-03-03T00:34:23;2.10;99.90
34542;DHT22;20784;51.332;12.410;2023-03-03T00:36:53;2.10;99.90
34542;DHT22;20784;51.332;12.410;2023-03-03T00:39:40;2.00;99.90
34542;DHT22;20784;51.332;12.410;2023-03-03T00:42:16;2.20;99.90
34542;DHT22;20784;51.332;12.410;2023-03-03T00:44:45;2.10;99.90
34542;DHT22;20784;51.332;12.410;2023-03-03T00:47:26;2.20;99.90
34542;DHT22;20784;51.332;12.410;2023-03-03T00:55:29;2.10;99.90
34542;DHT22;20784;51.332;12.410;2023-03-03T00:57:56;2.00;99.90
34542;DHT22;20784;51.332;12.410;2023-03-03T01:00:24;2.10;99.90
34542;DHT22;20784;51.332;12.410;2023-03-03T01:02:50;2.10;99.90
34542;DHT22;20784;51.332;12.410;2023-03-03T01:05:25;1.90;99.90
34542;DHT22;20784;51.332;12.410;2023-03-03T01:07:58;1.90;99.90
34542;DHT22;20784;51.332;12.410;2023-03-03T01:10:26;1.90;99.90
34542;DHT22;20784;51.332;12.410;2023-03-03T01:12:55;1.90;99.90
34542;DHT22;20784;51.332;12.410;2023-03-03T01:15:22;1.90;99.90
34542;DHT22;20784;51.332;12.410;2023-03-03T01:17:51;1.80;99.90
34542;DHT22;20784;51.332;12.410;2023-03-03T01:20:19;1.80;99.90
34542;DHT22;20784;51.332;12.410;2023-03-03T01:22:51;1.80;99.90
34542;DHT22;20784;51.332;12.410;2023-03-03T01:25:20;1.80;99.90
34542;DHT22;20784;51.332;12.410;2023-03-03T01:27:45;1.90;99.90
34542;DHT22;20784;51.332;12.410;2023-03-03T01:30:11;2.00;99.90
34542;DHT22;20784;51.332;12.410;2023-03-03T01:32:37;2.00;99.90
34542;DHT22;20784;51.332;12.410;2023-03-03T01:35:03;1.80;99.90
34542;DHT22;20784;51.332;12.410;2023-03-03T01:37:28;1.90;99.90
34542;DHT22;20784;51.332;12.410;2023-03-03T01:39:54;1.90;99.90
34542;DHT22;20784;51.332;12.410;2023-03-03T01:42:20;2.00;99.90
34542;DHT22;20784;51.332;12.410;2023-03-03T01:45:21;2.10;99.90
34542;DHT22;20784;51.332;12.410;2023-03-03T01:50:27;2.00;99.90
34542;DHT22;20784;51.332;12.410;2023-03-03T01:53:02;2.00;99.90
34542;DHT22;20784;51.332;12.410;2023-03-03T01:55:34;1.90;99.90
34542;DHT22;20784;51.332;12.410;2023-03-03T01:58:16;1.90;99.90
34542;DHT22;20784;51.332;12.410;2023-03-03T02:00:54;1.90;99.90
34542;DHT22;20784;51.332;12.410;2023-03-03T02:03:24;1.90;99.90
34542;DHT22;20784;51.332;12.410;2023-03-03T02:05:53;1.90;99.90
34542;DHT22;20784;51.332;12.410;2023-03-03T02:08:26;1.90;99.90
34542;DHT22;20784;51.332;12.410;2023-03-03T02:10:53;1.90;99.90
34542;DHT22;20784;51.332;12.410;2023-03-03T02:13:19;2.00;99.90
34542;DHT22;20784;51.332;12.410;2023-03-03T02:15:45;1.80;99.90
34542;DHT22;20784;51.332;12.410;2023-03-03T02:18:13;1.90;99.90
34542;DHT22;20784;51.332;12.410;2023-03-03T02:21:03;1.80;99.90
34542;DHT22;20784;51.332;12.410;2023-03-03T02:23:38;1.80;99.90
34542;DHT22;20784;51.332;12.410;2023-03-03T02:26:12;1.90;99.90
34542;DHT22;20784;51.332;12.410;2023-03-03T02:28:39;1.80;99.90
34542;DHT22;20784;51.332;12.410;2023-03-03T02:31:11;2.00;99.90
34542;DHT22;20784;51.332;12.410;2023-03-03T02:33:41;1.80;99.90
34542;DHT22;20784;51.332;12.410;2023-03-03T02:36:30;1.80;99.90
34542;DHT22;20784;51.332;12.410;2023-03-03T02:39:17;1.70;99.90
34542;DHT22;20784;51.332;12.410;2023-03-03T02:44:35;1.40;99.90
34542;DHT22;20784;51.332;12.410;2023-03-03T02:47:01;1.50;99.90
34542;DHT22;20784;51.332;12.410;2023-03-03T02:49:29;1.40;99.90
34542;DHT22;20784;51.332;12.410;2023-03-03T02:51:57;1.40;99.90
34542;DHT22;20784;51.332;12.410;2023-03-03T02:54:25;1.40;99.90
34542;DHT22;20784;51.332;12.410;2023-03-03T02:56:54;1.40;99.90
34542;DHT22;20784;51.332;12.410;2023-03-03T02:59:23;1.40;99.90
34542;DHT22;20784;51.332;12.410;2023-03-03T03:01:49;1.40;99.90
34542;DHT22;20784;51.332;12.410;2023-03-03T03:04:17;1.40;99.90
34542;DHT22;20784;51.332;12.410;2023-03-03T03:06:49;1.50;99.90
34542;DHT22;20784;51.332;12.410;2023-03-03T03:09:16;1.60;99.90
34542;DHT22;20784;51.332;12.410;2023-03-03T03:11:43;1.60;99.90
34542;DHT22;20784;51.332;12.410;2023-03-03T03:14:10;1.50;99.90
34542;DHT22;20784;51.332;12.410;2023-03-03T03:19:29;1.40;99.90
34542;DHT22;20784;51.332;12.410;2023-03-03T03:21:57;1.40;99.90
34542;DHT22;20784;51.332;12.410;2023-03-03T03:24:23;1.40;99.90
34542;DHT22;20784;51.332;12.410;2023-03-03T03:26:49;1.50;99.90
34542;DHT22;20784;51.332;12.410;2023-03-03T03:29:14;1.50;99.90
34542;DHT22;20784;51.332;12.410;2023-03-03T03:31:42;1.50;99.90
34542;DHT22;20784;51.332;12.410;2023-03-03T03:34:08;1.60;99.90
34542;DHT22;20784;51.332;12.410;2023-03-03T03:36:36;1.40;99.90
34542;DHT22;20784;51.332;12.410;2023-03-03T03:39:06;1.50;99.90
34542;DHT22;20784;51.332;12.410;2023-03-03T03:41:35;1.40;99.90
34542;DHT22;20784;51.332;12.410;2023-03-03T03:44:01;1.40;99.90
34542;DHT22;20784;51.332;12.410;2023-03-03T03:46:31;1.40;99.90
34542;DHT22;20784;51.332;12.410;2023-03-03T03:49:00;1.40;99.90
34542;DHT22;20784;51.332;12.410;2023-03-03T03:51:25;1.30;99.90
34542;DHT22;20784;51.332;12.410;2023-03-03T03:53:54;1.30;99.90
34542;DHT22;20784;51.332;12.410;2023-03-03T03:56:19;1.20;99.90
34542;DHT22;20784;51.332;12.410;2023-03-03T03:58:47;1.30;99.90
34542;DHT22;20784;51.332;12.410;2023-03-03T04:01:13;1.40;99.90
34542;DHT22;20784;51.332;12.410;2023-03-03T04:03:41;1.50;99.90
34542;DHT22;20784;51.332;12.410;2023-03-03T04:06:07;1.40;99.90
34542;DHT22;20784;51.332;12.410;2023-03-03T04:08:32;1.30;99.90
34542;DHT22;20784;51.332;12.410;2023-03-03T04:10:58;1.20;99.90
34542;DHT22;20784;51.332;12.410;2023-03-03T04:13:24;1.20;99.90
34542;DHT22;20784;51.332;12.410;2023-03-03T04:15:53;1.20;99.90
34542;DHT22;20784;51.332;12.410;2023-03-03T04:18:18;1.30;99.90
34542;DHT22;20784;51.332;12.410;2023-03-03T04:20:44;1.40;99.90
34542;DHT22;20784;51.332;12.410;2023-03-03T04:23:10;1.50;99.90
34542;DHT22;20784;51.332;12.410;2023-03-03T04:25:36;1.40;99.90
34542;DHT22;20784;51.332;12.410;2023-03-03T04:28:01;1.40;99.90
34542;DHT22;20784;51.332;12.410;2023-03-03T04:30:27;1.40;99.90
34542;DHT22;20784;51.332;12.410;2023-03-03T04:32:53;1.40;99.90
34542;DHT22;20784;51.332;12.410;2023-03-03T04:35:18;1.40;99.90
34542;DHT22;20784;51.332;12.410;2023-03-03T04:37:44;1.50;99.90
34542;DHT22;20784;51.332;12.410;2023-03-03T04:40:10;1.40;99.90
34542;DHT22;20784;51.332;12.410;2023-03-03T04:42:36;1.30;99.90
34542;DHT22;20784;51.332;12.410;2023-03-03T04:45:03;1.40;99.90
34542;DHT22;20784;51.332;12.410;2023-03-03T04:47:28;1.40;99.90
34542;DHT22;20784;51.332;12.410;2023-03-03T04:49:57;1.50;99.90
34542;DHT22;20784;51.332;12.410;2023-03-03T04:52:22;1.50;99.90
34542;DHT22;20784;51.332;12.410;2023-03-03T04:54:51;1.50;99.90
34542;DHT22;20784;51.332;12.410;2023-03-03T04:57:17;1.50;99.90
34542;DHT22;20784;51.332;12.410;2023-03-03T04:59:45;1.50;99.90
34542;DHT22;20784;51.332;12.410;2023-03-03T05:02:14;1.30;99.90
34542;DHT22;20784;51.332;12.410;2023-03-03T05:04:45;1.40;99.90
34542;DHT22;20784;51.332;12.410;2023-03-03T05:07:22;1.50;99.90
34542;DHT22;20784;51.332;12.410;2023-03-03T05:09:59;1.50;99.90
34542;DHT22;20784;51.332;12.410;2023-03-03T05:12:28;1.50;99.90
34542;DHT22;20784;51.332;12.410;2023-03-03T05:15:03;1.40;99.90
34542;DHT22;20784;51.332;12.410;2023-03-03T05:17:29;1.40;99.90
34542;DHT22;20784;51.332;12.410;2023-03-03T05:19:55;1.40;99.90
34542;DHT22;20784;51.332;12.410;2023-03-03T05:22:22;1.30;99.90
34542;DHT22;20784;51.332;12.410;2023-03-03T05:24:48;1.30;99.90
34542;DHT22;20784;51.332;12.410;2023-03-03T05:27:17;1.10;99.90
34542;DHT22;20784;51.332;12.410;2023-03-03T05:29:43;1.10;99.90
34542;DHT22;20784;51.332;12.410;2023-03-03T05:32:12;1.10;99.90
34542;DHT22;20784;51.332;12.410;2023-03-03T05:34:43;1.10;99.90
34542;DHT22;20784;51.332;12.410;2023-03-03T05:37:09;1.00;99.90
34542;DHT22;20784;51.332;12.410;2023-03-03T05:39:35;1.10;99.90
34542;DHT22;20784;51.332;12.410;2023-03-03T05:42:03;1.20;99.90
34542;DHT22;20784;51.332;12.410;2023-03-03T05:44:30;1.20;99.90
34542;DHT22;20784;51.332;12.410;2023-03-03T05:46:56;1.20;99.90
34542;DHT22;20784;51.332;12.410;2023-03-03T05:49:25;1.10;99.90
34542;DHT22;20784;51.332;12.410;2023-03-03T05:51:50;1.10;99.90
34542;DHT22;20784;51.332;12.410;2023-03-03T05:54:18;1.10;99.90
34542;DHT22;20784;51.332;12.410;2023-03-03T05:56:47;1.10;99.90
34542;DHT22;20784;51.332;12.410;2023-03-03T05:59:15;1.00;99.90
34542;DHT22;20784;51.332;12.410;2023-03-03T06:01:41;1.00;99.90
34542;DHT22;20784;51.332;12.410;2023-03-03T06:04:07;1.00;99.90
34542;DHT22;20784;51.332;12.410;2023-03-03T06:06:33;1.00;99.90
34542;DHT22;20784;51.332;12.410;2023-03-03T06:09:01;1.10;99.90
34542;DHT22;20784;51.332;12.410;2023-03-03T06:11:29;1.10;99.90
34542;DHT22;20784;51.332;12.410;2023-03-03T06:13:57;1.20;99.90
34542;DHT22;20784;51.332;12.410;2023-03-03T06:16:26;1.30;99.90
34542;DHT22;20784;51.332;12.410;2023-03-03T06:18:52;1.30;99.90
34542;DHT22;20784;51.332;12.410;2023-03-03T06:21:21;1.30;99.90
34542;DHT22;20784;51.332;12.410;2023-03-03T06:23:47;1.40;99.90
34542;DHT22;20784;51.332;12.410;2023-03-03T06:26:36;1.30;99.90
34542;DHT22;20784;51.332;12.410;2023-03-03T06:29:02;1.40;99.90
34542;DHT22;20784;51.332;12.410;2023-03-03T06:31:28;1.40;99.90
34542;DHT22;20784;51.332;12.410;2023-03-03T06:33:53;1.40;99.90
34542;DHT22;20784;51.332;12.410;2023-03-03T06:36:20;1.50;99.90
34542;DHT22;20784;51.332;12.410;2023-03-03T06:38:45;1.50;99.90
34542;DHT22;20784;51.332;12.410;2023-03-03T06:47:24;1.40;99.90
34542;DHT22;20784;51.332;12.410;2023-03-03T06:49:53;1.40;99.90
34542;DHT22;20784;51.332;12.410;2023-03-03T06:52:28;1.30;99.90
34542;DHT22;20784;51.332;12.410;2023-03-03T06:58:21;1.30;99.90
34542;DHT22;20784;51.332;12.410;2023-03-03T07:01:08;1.40;99.90
34542;DHT22;20784;51.332;12.410;2023-03-03T07:03:55;1.40;99.90
34542;DHT22;20784;51.332;12.410;2023-03-03T07:06:22;1.50;99.90
34542;DHT22;20784;51.332;12.410;2023-03-03T07:08:56;1.50;99.90
34542;DHT22;20784;51.332;12.410;2023-03-03T07:11:24;1.40;99.90
34542;DHT22;20784;51.332;12.410;2023-03-03T07:13:52;1.50;99.90
34542;DHT22;20784;51.332;12.410;2023-03-03T07:16:23;1.40;99.90
34542;DHT22;20784;51.332;12.410;2023-03-03T07:18:56;1.50;99.90
34542;DHT22;20784;51.332;12.410;2023-03-03T07:21:35;1.50;99.90
34542;DHT22;20784;51.332;12.410;2023-03-03T07:24:27;1.40;99.90
34542;DHT22;20784;51.332;12.410;2023-03-03T07:27:00;1.50;99.90
34542;DHT22;20784;51.332;12.410;2023-03-03T07:29:32;1.50;99.90
34542;DHT22;20784;51.332;12.410;2023-03-03T07:32:00;1.50;99.90
34542;DHT22;20784;51.332;12.410;2023-03-03T07:34:35;1.50;99.90
34542;DHT22;20784;51.332;12.410;2023-03-03T07:37:09;1.40;99.90
34542;DHT22;20784;51.332;12.410;2023-03-03T07:39:39;1.50;99.90
34542;DHT22;20784;51.332;12.410;2023-03-03T07:42:15;1.50;99.90
34542;DHT22;20784;51.332;12.410;2023-03-03T07:44:43;1.30;99.90
34542;DHT22;20784;51.332;12.410;2023-03-03T07:47:23;1.40;99.90
34542;DHT22;20784;51.332;12.410;2023-03-03T07:49:54;1.50;99.90
34542;DHT22;20784;51.332;12.410;2023-03-03T07:55:37;1.50;99.90
34542;DHT22;20784;51.332;12.410;2023-03-03T08:03:51;1.60;99.90
34542;DHT22;20784;51.332;12.410;2023-03-03T08:06:49;1.60;99.90
34542;DHT22;20784;51.332;12.410;2023-03-03T08:09:36;1.70;99.90
34542;DHT22;20784;51.332;12.410;2023-03-03T08:14:36;1.70;99.90
34542;DHT22;20784;51.332;12.410;2023-03-03T08:17:23;1.60;99.90
34542;DHT22;20784;51.332;12.410;2023-03-03T08:19:55;1.70;99.90
34542;DHT22;20784;51.332;12.410;2023-03-03T08:22:35;1.80;99.90
34542;DHT22;20784;51.332;12.410;2023-03-03T08:25:03;1.90;99.90
34542;DHT22;20784;51.332;12.410;2023-03-03T08:27:34;1.80;99.90
34542;DHT22;20784;51.332;12.410;2023-03-03T08:30:00;1.90;99.90
34542;DHT22;20784;51.332;12.410;2023-03-03T08:32:26;1.90;99.90
34542;DHT22;20784;51.332;12.410;2023-03-03T08:34:51;1.90;99.90
34542;DHT22;20784;51.332;12.410;2023-03-03T08:37:22;2.00;99.90
34542;DHT22;20784;51.332;12.410;2023-03-03T08:39:50;2.00;99.90
34542;DHT22;20784;51.332;12.410;2023-03-03T08:42:18;2.00;99.90
34542;DHT22;20784;51.332;12.410;2023-03-03T08:44:44;1.90;99.90
34542;DHT22;20784;51.332;12.410;2023-03-03T08:47:10;1.80;99.90
34542;DHT22;20784;51.332;12.410;2023-03-03T08:49:36;1.80;99.90
34542;DHT22;20784;51.332;12.410;2023-03-03T08:52:02;1.80;99.90
34542;DHT22;20784;51.332;12.410;2023-03-03T08:54:28;2.00;99.90
34542;DHT22;20784;51.332;12.410;2023-03-03T08:56:54;2.10;99.90
34542;DHT22;20784;51.332;12.410;2023-03-03T08:59:20;2.00;99.90
34542;DHT22;20784;51.332;12.410;2023-03-03T09:01:46;2.00;99.90
34542;DHT22;20784;51.332;12.410;2023-03-03T09:04:12;2.10;99.90
34542;DHT22;20784;51.332;12.410;2023-03-03T09:06:38;2.10;99.90
34542;DHT22;20784;51.332;12.410;2023-03-03T09:09:06;2.20;99.90
34542;DHT22;20784;51.332;12.410;2023-03-03T09:11:32;2.10;99.90
34542;DHT22;20784;51.332;12.410;2023-03-03T09:14:06;2.20;99.90
34542;DHT22;20784;51.332;12.410;2023-03-03T09:16:41;2.20;99.90
34542;DHT22;20784;51.332;12.410;2023-03-03T09:22:42;2.20;99.90
34542;DHT22;20784;51.332;12.410;2023-03-03T09:28:36;2.20;99.90
34542;DHT22;20784;51.332;12.410;2023-03-03T09:37:33;2.40;99.90
34542;DHT22;20784;51.332;12.410;2023-03-03T10:00:30;2.60;99.90
34542;DHT22;20784;51.332;12.410;2023-03-03T10:18:12;2.70;99.90
34542;DHT22;20784;51.332;12.410;2023-03-03T10:44:53;3.20;99.90
34542;DHT22;20784;51.332;12.410;2023-03-03T10:47:46;3.30;99.90
34542;DHT22;20784;51.332;12.410;2023-03-03T10:50:20;3.20;99.90
34542;DHT22;20784;51.332;12.410;2023-03-03T10:59:08;3.30;99.90
34542;DHT22;20784;51.332;12.410;2023-03-03T11:01:56;3.30;99.90
34542;DHT22;20784;51.332;12.410;2023-03-03T11:07:48;3.20;99.90
34542;DHT22;20784;51.332;12.410;2023-03-03T11:10:56;3.30;99.90
34542;DHT22;20784;51.332;12.410;2023-03-03T11:19:22;3.20;99.90
34542;DHT22;20784;51.332;12.410;2023-03-03T11:30:42;3.30;99.90
34542;DHT22;20784;51.332;12.410;2023-03-03T11:47:34;3.30;99.90
34542;DHT22;20784;51.332;12.410;2023-03-03T11:50:13;3.30;99.90
34542;DHT22;20784;51.332;12.410;2023-03-03T11:52:56;3.30;99.90
34542;DHT22;20784;51.332;12.410;2023-03-03T11:55:38;3.30;99.90
34542;DHT22;20784;51.332;12.410;2023-03-03T11:58:21;3.30;99.90
34542;DHT22;20784;51.332;12.410;2023-03-03T12:00:53;3.10;99.90
34542;DHT22;20784;51.332;12.410;2023-03-03T12:03:32;3.30;99.90
34542;DHT22;20784;51.332;12.410;2023-03-03T12:06:05;3.30;99.90
34542;DHT22;20784;51.332;12.410;2023-03-03T12:09:02;3.30;99.90
34542;DHT22;20784;51.332;12.410;2023-03-03T12:11:56;3.40;99.90
34542;DHT22;20784;51.332;12.410;2023-03-03T12:29:48;3.70;99.90
34542;DHT22;20784;51.332;12.410;2023-03-03T12:35:45;3.40;99.90
34542;DHT22;20784;51.332;12.410;2023-03-03T12:38:22;3.40;99.90
34542;DHT22;20784;51.332;12.410;2023-03-03T12:41:15;3.40;99.90
34542;DHT22;20784;51.332;12.410;2023-03-03T12:44:13;3.40;99.90
34542;DHT22;20784;51.332;12.410;2023-03-03T12:52:12;3.70;99.90
34542;DHT22;20784;51.332;12.410;2023-03-03T12:55:20;3.80;99.90
34542;DHT22;20784;51.332;12.410;2023-03-03T13:01:01;4.00;99.90
34542;DHT22;20784;51.332;12.410;2023-03-03T13:03:48;4.10;99.90
34542;DHT22;20784;51.332;12.410;2023-03-03T13:13:07;4.30;99.90
34542;DHT22;20784;51.332;12.410;2023-03-03T13:15:49;4.30;99.90
34542;DHT22;20784;51.332;12.410;2023-03-03T13:18:38;4.20;99.90
34542;DHT22;20784;51.332;12.410;2023-03-03T13:21:29;4.20;99.90
34542;DHT22;20784;51.332;12.410;2023-03-03T13:24:26;4.10;99.90
34542;DHT22;20784;51.332;12.410;2023-03-03T13:27:11;4.10;99.90
34542;DHT22;20784;51.332;12.410;2023-03-03T13:29:41;4.20;99.90
34542;DHT22;20784;51.332;12.410;2023-03-03T13:32:19;4.20;99.90
34542;DHT22;20784;51.332;12.410;2023-03-03T13:34:54;4.20;99.90
34542;DHT22;20784;51.332;12.410;2023-03-03T13:37:37;4.20;99.90
34542;DHT22;20784;51.332;12.410;2023-03-03T13:40:23;4.30;99.90
34542;DHT22;20784;51.332;12.410;2023-03-03T13:43:01;4.20;99.90
34542;DHT22;20784;51.332;12.410;2023-03-03T13:51:09;3.90;99.90
34542;DHT22;20784;51.332;12.410;2023-03-03T13:54:03;3.90;99.90
34542;DHT22;20784;51.332;12.410;2023-03-03T13:56:46;4.00;99.90
34542;DHT22;20784;51.332;12.410;2023-03-03T13:59:18;4.00;99.90
34542;DHT22;20784;51.332;12.410;2023-03-03T14:02:01;3.90;99.90
34542;DHT22;20784;51.332;12.410;2023-03-03T14:05:03;3.90;99.90
34542;DHT22;20784;51.332;12.410;2023-03-03T14:07:36;4.00;99.90
34542;DHT22;20784;51.332;12.410;2023-03-03T14:10:13;3.90;99.90
34542;DHT22;20784;51.332;12.410;2023-03-03T14:13:11;3.80;99.90
34542;DHT22;20784;51.332;12.410;2023-03-03T14:15:46;3.80;99.90
34542;DHT22;20784;51.332;12.410;2023-03-03T14:18:28;3.90;99.90
34542;DHT22;20784;51.332;12.410;2023-03-03T14:24:19;4.00;99.90
34542;DHT22;20784;51.332;12.410;2023-03-03T14:26:51;4.10;99.90
34542;DHT22;20784;51.332;12.410;2023-03-03T14:31:57;4.20;99.90
34542;DHT22;20784;51.332;12.410;2023-03-03T14:34:35;4.20;99.90
34542;DHT22;20784;51.332;12.410;2023-03-03T14:39:50;4.20;99.90
34542;DHT22;20784;51.332;12.410;2023-03-03T14:42:46;4.30;99.90
34542;DHT22;20784;51.332;12.410;2023-03-03T14:45:38;4.20;99.90
34542;DHT22;20784;51.332;12.410;2023-03-03T14:48:22;4.10;99.90
34542;DHT22;20784;51.332;12.410;2023-03-03T14:53:29;3.90;99.90
34542;DHT22;20784;51.332;12.410;2023-03-03T14:58:50;3.80;99.90
34542;DHT22;20784;51.332;12.410;2023-03-03T15:01:33;3.90;99.90
34542;DHT22;20784;51.332;12.410;2023-03-03T15:04:04;3.90;99.90
34542;DHT22;20784;51.332;12.410;2023-03-03T15:09:29;3.80;99.90
34542;DHT22;20784;51.332;12.410;2023-03-03T15:11:59;3.90;99.90
34542;DHT22;20784;51.332;12.410;2023-03-03T15:14:34;3.90;99.90
34542;DHT22;20784;51.332;12.410;2023-03-03T15:20:19;4.00;99.90
34542;DHT22;20784;51.332;12.410;2023-03-03T15:28:35;4.00;99.90
34542;DHT22;20784;51.332;12.410;2023-03-03T15:34:37;4.00;99.90
34542;DHT22;20784;51.332;12.410;2023-03-03T15:40:04;3.90;99.90
34542;DHT22;20784;51.332;12.410;2023-03-03T15:53:50;3.60;99.90
34542;DHT22;20784;51.332;12.410;2023-03-03T15:56:35;3.60;99.90
34542;DHT22;20784;51.332;12.410;2023-03-03T15:59:27;3.60;99.90
34542;DHT22;20784;51.332;12.410;2023-03-03T16:04:31;3.70;99.90
34542;DHT22;20784;51.332;12.410;2023-03-03T16:07:13;3.70;99.90
34542;DHT22;20784;51.332;12.410;2023-03-03T16:12:53;3.70;99.90
34542;DHT22;20784;51.332;12.410;2023-03-03T16:25:19;3.70;99.90
34542;DHT22;20784;51.332;12.410;2023-03-03T16:28:05;3.70;99.90
34542;DHT22;20784;51.332;12.410;2023-03-03T16:33:59;3.60;99.90
34542;DHT22;20784;51.332;12.410;2023-03-03T16:42:32;3.70;99.90
34542;DHT22;20784;51.332;12.410;2023-03-03T16:45:05;3.70;99.90
34542;DHT22;20784;51.332;12.410;2023-03-03T16:50:26;3.70;99.90
34542;DHT22;20784;51.332;12.410;2023-03-03T16:53:16;3.70;99.90
34542;DHT22;20784;51.332;12.410;2023-03-03T16:56:05;3.70;99.90
34542;DHT22;20784;51.332;12.410;2023-03-03T17:03:59;3.70;99.90
34542;DHT22;20784;51.332;12.410;2023-03-03T17:06:47;3.70;99.90
34542;DHT22;20784;51.332;12.410;2023-03-03T17:09:30;3.70;99.90
34542;DHT22;20784;51.332;12.410;2023-03-03T17:18:00;3.70;99.90
34542;DHT22;20784;51.332;12.410;2023-03-03T17:20:47;3.70;99.90
34542;DHT22;20784;51.332;12.410;2023-03-03T17:23:44;3.70;99.90
34542;DHT22;20784;51.332;12.410;2023-03-03T17:44:36;3.60;99.90
34542;DHT22;20784;51.332;12.410;2023-03-03T17:47:07;3.60;99.90
34542;DHT22;20784;51.332;12.410;2023-03-03T17:56:24;3.50;99.90
34542;DHT22;20784;51.332;12.410;2023-03-03T18:11:27;3.30;99.90
34542;DHT22;20784;51.332;12.410;2023-03-03T18:26:40;3.20;99.90
34542;DHT22;20784;51.332;12.410;2023-03-03T18:34:35;3.40;99.90
34542;DHT22;20784;51.332;12.410;2023-03-03T18:40:14;3.40;99.90
34542;DHT22;20784;51.332;12.410;2023-03-03T18:42:39;3.40;99.90
34542;DHT22;20784;51.332;12.410;2023-03-03T18:50:41;3.40;99.90
34542;DHT22;20784;51.332;12.410;2023-03-03T18:55:49;3.30;99.90
34542;DHT22;20784;51.332;12.410;2023-03-03T18:58:40;3.30;99.90
34542;DHT22;20784;51.332;12.410;2023-03-03T19:04:17;3.30;99.90
34542;DHT22;20784;51.332;12.410;2023-03-03T19:09:19;3.20;99.90
34542;DHT22;20784;51.332;12.410;2023-03-03T19:12:08;3.20;99.90
34542;DHT22;20784;51.332;12.410;2023-03-03T19:14:40;3.20;99.90
34542;DHT22;20784;51.332;12.410;2023-03-03T19:20:20;3.10;99.90
34542;DHT22;20784;51.332;12.410;2023-03-03T19:22:52;3.10;99.90
34542;DHT22;20784;51.332;12.410;2023-03-03T19:25:33;3.10;99.90
34542;DHT22;20784;51.332;12.410;2023-03-03T19:30:57;3.10;99.90
34542;DHT22;20784;51.332;12.410;2023-03-03T19:36:35;3.10;99.90
34542;DHT22;20784;51.332;12.410;2023-03-03T19:42:04;3.10;99.90
34542;DHT22;20784;51.332;12.410;2023-03-03T19:44:59;3.10;99.90
34542;DHT22;20784;51.332;12.410;2023-03-03T19:47:47;3.10;99.90
34542;DHT22;20784;51.332;12.410;2023-03-03T19:59:29;3.10;99.90
34542;DHT22;20784;51.332;12.410;2023-03-03T20:07:54;3.10;99.90
34542;DHT22;20784;51.332;12.410;2023-03-03T20:13:30;3.00;99.90
34542;DHT22;20784;51.332;12.410;2023-03-03T20:27:18;3.00;99.90
34542;DHT22;20784;51.332;12.410;2023-03-03T20:30:16;3.00;99.90
34542;DHT22;20784;51.332;12.410;2023-03-03T20:38:35;2.90;99.90
34542;DHT22;20784;51.332;12.410;2023-03-03T20:41:29;2.90;99.90
34542;DHT22;20784;51.332;12.410;2023-03-03T20:44:37;2.90;99.90
34542;DHT22;20784;51.332;12.410;2023-03-03T21:04:30;2.90;99.90
34542;DHT22;20784;51.332;12.410;2023-03-03T21:10:41;2.90;99.90
34542;DHT22;20784;51.332;12.410;2023-03-03T21:13:44;2.80;99.90
34542;DHT22;20784;51.332;12.410;2023-03-03T21:19:04;2.70;99.90
34542;DHT22;20784;51.332;12.410;2023-03-03T21:21:45;2.80;99.90
34542;DHT22;20784;51.332;12.410;2023-03-03T21:24:14;2.80;99.90
34542;DHT22;20784;51.332;12.410;2023-03-03T21:26:56;2.90;99.90
34542;DHT22;20784;51.332;12.410;2023-03-03T21:29:33;2.90;99.90
34542;DHT22;20784;51.332;12.410;2023-03-03T21:32:06;2.90;99.90
34542;DHT22;20784;51.332;12.410;2023-03-03T21:34:37;2.90;99.90
34542;DHT22;20784;51.332;12.410;2023-03-03T21:37:11;2.90;99.90
34542;DHT22;20784;51.332;12.410;2023-03-03T21:43:01;2.90;99.90
34542;DHT22;20784;51.332;12.410;2023-03-03T21:45:36;2.70;99.90
34542;DHT22;20784;51.332;12.410;2023-03-03T21:48:09;2.80;99.90
34542;DHT22;20784;51.332;12.410;2023-03-03T21:50:48;2.80;99.90
34542;DHT22;20784;51.332;12.410;2023-03-03T21:53:27;2.80;99.90
34542;DHT22;20784;51.332;12.410;2023-03-03T21:56:13;2.80;99.90
34542;DHT22;20784;51.332;12.410;2023-03-03T21:58:40;2.80;99.90
34542;DHT22;20784;51.332;12.410;2023-03-03T22:01:09;2.70;99.90
34542;DHT22;20784;51.332;12.410;2023-03-03T22:03:53;2.70;99.90
34542;DHT22;20784;51.332;12.410;2023-03-03T22:06:39;2.80;99.90
34542;DHT22;20784;51.332;12.410;2023-03-03T22:09:17;2.90;99.90
34542;DHT22;20784;51.332;12.410;2023-03-03T22:11:47;2.80;99.90
34542;DHT22;20784;51.332;12.410;2023-03-03T22:14:15;2.80;99.90
34542;DHT22;20784;51.332;12.410;2023-03-03T22:16:41;2.70;99.90
34542;DHT22;20784;51.332;12.410;2023-03-03T22:19:18;2.60;99.90
34542;DHT22;20784;51.332;12.410;2023-03-03T22:21:45;2.70;99.90
34542;DHT22;20784;51.332;12.410;2023-03-03T22:24:19;2.70;99.90
34542;DHT22;20784;51.332;12.410;2023-03-03T22:26:52;2.70;99.90
34542;DHT22;20784;51.332;12.410;2023-03-03T22:29:18;2.80;99.90
34542;DHT22;20784;51.332;12.410;2023-03-03T22:31:52;2.70;99.90
34542;DHT22;20784;51.332;12.410;2023-03-03T22:34:26;2.70;99.90
34542;DHT22;20784;51.332;12.410;2023-03-03T22:36:52;2.70;99.90
34542;DHT22;20784;51.332;12.410;2023-03-03T22:39:17;2.70;99.90
34542;DHT22;20784;51.332;12.410;2023-03-03T22:41:45;2.70;99.90
34542;DHT22;20784;51.332;12.410;2023-03-03T22:44:13;2.60;99.90
34542;DHT22;20784;51.332;12.410;2023-03-03T22:46:42;2.50;99.90
34542;DHT22;20784;51.332;12.410;2023-03-03T22:49:10;2.50;99.90
34542;DHT22;20784;51.332;12.410;2023-03-03T22:51:47;2.50;99.90
34542;DHT22;20784;51.332;12.410;2023-03-03T22:54:16;2.40;99.90
34542;DHT22;20784;51.332;12.410;2023-03-03T22:56:44;2.30;99.90
34542;DHT22;20784;51.332;12.410;2023-03-03T22:59:16;2.40;99.90
34542;DHT22;20784;51.332;12.410;2023-03-03T23:01:41;2.30;99.90
34542;DHT22;20784;51.332;12.410;2023-03-03T23:04:07;2.30;99.90
34542;DHT22;20784;51.332;12.410;2023-03-03T23:09:24;2.40;99.90